createdAt,value
2019-06-26T00:01:30.899Z,17.48
2019-06-26T00:04:03.582Z,16.48
2019-06-26T00:06:35.778Z,17.00
2019-06-26T00:09:10.485Z,17.32
2019-06-26T00:11:43.297Z,16.93
2019-06-26T00:14:23.349Z,17.65
2019-06-26T00:16:55.785Z,17.45
2019-06-26T00:19:28.451Z,16.35
2019-06-26T00:22:00.940Z,16.85
2019-06-26T00:24:33.414Z,16.67
2019-06-26T00:27:06.284Z,17.23
2019-06-26T00:29:38.670Z,18.17
2019-06-26T00:32:11.166Z,17.05
2019-06-26T00:34:43.766Z,17.42
2019-06-26T00:37:16.503Z,17.12
2019-06-26T00:39:49.105Z,17.37
2019-06-26T00:42:22.105Z,17.12
2019-06-26T00:44:54.754Z,18.27
2019-06-26T00:47:27.292Z,19.17
2019-06-26T00:50:00.011Z,17.85
2019-06-26T00:52:33.207Z,17.65
2019-06-26T00:55:05.988Z,16.65
2019-06-26T00:57:38.366Z,16.80
2019-06-26T01:00:12.600Z,17.55
2019-06-26T01:02:45.351Z,16.02
2019-06-26T01:05:18.352Z,17.48
2019-06-26T01:07:51.869Z,19.00
2019-06-26T01:10:25.013Z,17.57
2019-06-26T01:12:57.406Z,18.25
2019-06-26T01:15:30.041Z,17.65
2019-06-26T01:18:02.594Z,17.42
2019-06-26T01:20:34.977Z,17.98
2019-06-26T01:23:07.822Z,17.48
2019-06-26T01:25:40.366Z,18.27
2019-06-26T01:28:12.888Z,18.05
2019-06-26T01:30:46.635Z,18.20
2019-06-26T01:33:19.499Z,17.77
2019-06-26T01:35:53.763Z,17.65
2019-06-26T01:38:26.421Z,17.90
2019-06-26T01:40:59.299Z,18.42
2019-06-26T01:43:32.133Z,18.37
2019-06-26T01:46:04.762Z,18.32
2019-06-26T01:48:37.615Z,20.05
2019-06-26T01:51:10.019Z,19.32
2019-06-26T01:53:42.526Z,19.42
2019-06-26T01:56:15.065Z,18.87
2019-06-26T01:58:47.779Z,19.90
2019-06-26T02:01:20.318Z,18.40
2019-06-26T02:03:52.900Z,18.60
2019-06-26T02:06:25.663Z,19.15
2019-06-26T02:08:58.136Z,19.42
2019-06-26T02:11:30.700Z,18.00
2019-06-26T02:14:03.217Z,19.82
2019-06-26T02:16:35.600Z,20.70
2019-06-26T02:19:09.650Z,19.15
2019-06-26T02:21:42.226Z,18.20
2019-06-26T02:24:14.929Z,19.32
2019-06-26T02:26:47.358Z,19.42
2019-06-26T02:29:19.977Z,18.50
2019-06-26T02:31:52.918Z,20.02
2019-06-26T02:34:25.875Z,21.52
2019-06-26T02:36:58.261Z,18.87
2019-06-26T02:39:30.903Z,18.75
2019-06-26T02:42:03.560Z,18.15
2019-06-26T02:44:51.983Z,18.17
2019-06-26T02:47:19.641Z,18.55
2019-06-26T02:49:44.937Z,18.82
2019-06-26T02:52:17.629Z,18.20
2019-06-26T02:54:51.087Z,17.92
2019-06-26T02:57:23.856Z,18.48
2019-06-26T02:59:56.556Z,18.65
2019-06-26T03:02:29.591Z,19.80
2019-06-26T03:05:02.047Z,19.57
2019-06-26T03:07:34.796Z,21.20
2019-06-26T03:10:08.119Z,20.68
2019-06-26T03:12:40.713Z,19.50
2019-06-26T03:15:13.831Z,17.95
2019-06-26T03:17:55.482Z,20.20
2019-06-26T03:20:25.886Z,19.80
2019-06-26T03:22:58.299Z,19.12
2019-06-26T03:25:30.699Z,19.00
2019-06-26T03:28:03.119Z,20.27
2019-06-26T03:30:35.803Z,20.40
2019-06-26T03:33:08.136Z,19.42
2019-06-26T03:35:40.940Z,19.42
2019-06-26T03:38:13.420Z,20.00
2019-06-26T03:40:45.858Z,18.75
2019-06-26T03:43:18.422Z,17.73
2019-06-26T03:45:51.005Z,18.20
2019-06-26T03:48:23.852Z,18.90
2019-06-26T03:50:56.356Z,17.40
2019-06-26T03:53:29.010Z,18.45
2019-06-26T03:56:01.332Z,18.25
2019-06-26T03:58:34.009Z,18.32
2019-06-26T04:01:07.510Z,17.25
2019-06-26T04:03:40.219Z,17.48
2019-06-26T04:06:12.948Z,23.12
2019-06-26T04:08:45.694Z,18.50
2019-06-26T04:11:18.288Z,19.65
2019-06-26T04:13:51.076Z,21.90
2019-06-26T04:16:23.565Z,18.23
2019-06-26T04:18:56.255Z,18.65
2019-06-26T04:21:28.715Z,21.75
2019-06-26T04:24:01.249Z,25.62
2019-06-26T04:26:33.792Z,27.82
2019-06-26T04:29:06.194Z,18.05
2019-06-26T04:31:39.077Z,21.27
2019-06-26T04:34:11.569Z,19.40
2019-06-26T04:36:44.060Z,19.45
2019-06-26T04:39:16.730Z,19.82
2019-06-26T04:41:49.523Z,20.08
2019-06-26T04:44:22.030Z,19.32
2019-06-26T04:46:54.743Z,18.07
2019-06-26T04:49:27.342Z,18.82
2019-06-26T04:52:06.729Z,20.10
2019-06-26T04:54:41.006Z,18.50
2019-06-26T04:57:13.380Z,18.65
2019-06-26T04:59:45.842Z,19.77
2019-06-26T05:02:18.282Z,20.25
2019-06-26T05:04:50.735Z,19.62
2019-06-26T05:07:23.439Z,17.92
2019-06-26T05:09:55.807Z,18.37
2019-06-26T05:12:28.248Z,18.87
2019-06-26T05:15:00.439Z,19.87
2019-06-26T05:17:33.045Z,19.77
2019-06-26T05:20:07.438Z,18.23
2019-06-26T05:22:39.523Z,20.97
2019-06-26T05:25:12.017Z,19.95
2019-06-26T05:27:44.472Z,18.55
2019-06-26T05:30:16.983Z,18.90
2019-06-26T05:32:49.720Z,19.02
2019-06-26T05:35:22.445Z,17.80
2019-06-26T05:37:55.429Z,19.27
2019-06-26T05:40:27.609Z,18.32
2019-06-26T05:43:00.318Z,18.45
2019-06-26T05:45:33.046Z,19.95
2019-06-26T05:48:05.436Z,18.90
2019-06-26T05:50:37.753Z,20.23
2019-06-26T05:53:10.603Z,20.17
2019-06-26T05:55:43.265Z,18.87
2019-06-26T05:58:15.883Z,16.27
2019-06-26T06:00:49.558Z,18.60
2019-06-26T06:03:22.424Z,17.30
2019-06-26T06:05:54.898Z,16.57
2019-06-26T06:08:27.490Z,17.12
2019-06-26T06:11:00.168Z,17.07
2019-06-26T06:13:32.835Z,16.87
2019-06-26T06:16:06.543Z,17.60
2019-06-26T06:18:41.092Z,16.67
2019-06-26T06:21:13.677Z,16.95
2019-06-26T06:23:46.968Z,17.05
2019-06-26T06:26:19.411Z,16.75
2019-06-26T06:28:52.484Z,19.30
2019-06-26T06:31:25.698Z,17.57
2019-06-26T06:33:58.205Z,18.45
2019-06-26T06:36:30.299Z,16.20
2019-06-26T06:39:03.066Z,16.95
2019-06-26T06:41:35.685Z,17.50
2019-06-26T06:44:08.518Z,18.95
2019-06-26T06:46:41.209Z,17.27
2019-06-26T06:49:14.117Z,19.27
2019-06-26T06:51:53.395Z,16.73
2019-06-26T06:54:30.198Z,17.75
2019-06-26T06:57:02.532Z,17.12
2019-06-26T06:59:34.645Z,16.87
2019-06-26T07:02:07.041Z,20.62
2019-06-26T07:04:39.124Z,18.57
2019-06-26T07:07:11.785Z,16.00
2019-06-26T07:09:44.230Z,19.30
2019-06-26T07:12:20.697Z,17.37
2019-06-26T07:14:52.764Z,27.73
2019-06-26T07:17:25.729Z,58.75
2019-06-26T07:19:58.307Z,37.63
2019-06-26T07:22:30.447Z,16.20
2019-06-26T07:25:18.742Z,17.17
2019-06-26T07:27:51.327Z,16.75
2019-06-26T07:30:24.866Z,16.02
2019-06-26T07:32:57.712Z,16.55
2019-06-26T07:35:30.351Z,16.00
2019-06-26T07:38:03.012Z,15.90
2019-06-26T07:40:35.679Z,14.25
2019-06-26T07:43:08.153Z,16.48
2019-06-26T07:45:40.700Z,15.78
2019-06-26T07:48:25.066Z,15.32
2019-06-26T07:50:57.870Z,13.22
2019-06-26T07:53:30.407Z,11.78
2019-06-26T07:56:02.836Z,10.23
2019-06-26T07:58:35.322Z,10.50
2019-06-26T08:01:07.784Z,10.32
2019-06-26T08:03:40.515Z,9.23
2019-06-26T08:06:13.051Z,8.88
2019-06-26T08:08:45.593Z,9.20
2019-06-26T08:11:18.061Z,9.50
2019-06-26T08:13:50.859Z,9.83
2019-06-26T08:16:23.432Z,9.25
2019-06-26T08:18:56.177Z,9.30
2019-06-26T08:21:28.853Z,8.50
2019-06-26T08:24:01.521Z,8.70
2019-06-26T08:26:33.929Z,9.38
2019-06-26T08:29:06.564Z,8.63
2019-06-26T08:31:39.101Z,9.50
2019-06-26T08:34:11.502Z,9.50
2019-06-26T08:36:44.090Z,8.85
2019-06-26T08:39:35.409Z,8.70
2019-06-26T08:42:10.792Z,16.15
2019-06-26T08:45:02.092Z,12.13
2019-06-26T08:47:45.659Z,8.55
2019-06-26T08:50:18.660Z,9.08
2019-06-26T08:52:51.285Z,9.10
2019-06-26T08:55:23.678Z,8.30
2019-06-26T08:58:15.283Z,10.45
2019-06-26T09:00:47.838Z,8.50
2019-06-26T09:03:21.991Z,8.13
2019-06-26T09:05:54.510Z,8.18
2019-06-26T09:08:27.427Z,7.95
2019-06-26T09:11:00.110Z,7.78
2019-06-26T09:13:33.226Z,7.70
2019-06-26T09:16:05.661Z,10.00
2019-06-26T09:18:38.739Z,8.35
2019-06-26T09:21:11.544Z,11.22
2019-06-26T09:23:44.230Z,8.05
2019-06-26T09:26:16.795Z,8.03
2019-06-26T09:28:49.615Z,8.03
2019-06-26T09:31:22.407Z,8.38
2019-06-26T09:33:55.005Z,7.37
2019-06-26T09:36:27.536Z,7.45
2019-06-26T09:39:00.229Z,7.78
2019-06-26T09:41:32.856Z,7.42
2019-06-26T09:44:05.544Z,7.45
2019-06-26T09:46:38.144Z,7.53
2019-06-26T09:49:10.702Z,8.10
2019-06-26T09:51:43.231Z,8.33
2019-06-26T09:54:15.658Z,7.97
2019-06-26T09:56:48.304Z,8.28
2019-06-26T09:59:39.872Z,6.70
2019-06-26T10:02:13.424Z,7.25
2019-06-26T10:04:46.784Z,6.85
2019-06-26T10:07:19.405Z,7.10
2019-06-26T10:09:52.388Z,6.83
2019-06-26T10:12:24.957Z,7.22
2019-06-26T10:14:58.059Z,6.60
2019-06-26T10:17:30.818Z,6.83
2019-06-26T10:20:03.628Z,6.78
2019-06-26T10:22:36.411Z,6.22
2019-06-26T10:25:11.371Z,6.90
2019-06-26T10:27:44.110Z,6.62
2019-06-26T10:30:17.011Z,6.83
2019-06-26T10:32:49.425Z,6.33
2019-06-26T10:35:22.755Z,6.85
2019-06-26T10:37:55.195Z,5.83
2019-06-26T10:40:27.753Z,6.37
2019-06-26T10:43:00.505Z,6.20
2019-06-26T10:45:36.053Z,6.22
2019-06-26T10:48:07.503Z,6.50
2019-06-26T10:50:48.557Z,6.72
2019-06-26T10:53:14.730Z,6.22
2019-06-26T10:55:47.213Z,6.53
2019-06-26T10:58:19.533Z,6.28
2019-06-26T11:00:51.897Z,6.28
2019-06-26T11:03:24.392Z,6.60
2019-06-26T11:05:56.931Z,6.22
2019-06-26T11:08:29.607Z,6.30
2019-06-26T11:11:02.010Z,6.40
2019-06-26T11:13:34.661Z,6.75
2019-06-26T11:16:07.316Z,6.35
2019-06-26T11:18:39.870Z,6.33
2019-06-26T11:21:12.531Z,6.45
2019-06-26T11:23:45.042Z,6.45
2019-06-26T11:26:17.618Z,6.20
2019-06-26T11:28:50.039Z,6.72
2019-06-26T11:31:22.792Z,6.47
2019-06-26T11:33:55.387Z,6.50
2019-06-26T11:36:28.105Z,6.75
2019-06-26T11:39:00.698Z,6.50
2019-06-26T11:41:34.413Z,6.40
2019-06-26T11:44:07.031Z,6.85
2019-06-26T11:46:39.380Z,6.92
2019-06-26T11:49:12.091Z,6.50
2019-06-26T11:51:44.499Z,6.58
2019-06-26T11:54:16.897Z,6.72
2019-06-26T11:56:49.429Z,6.85
2019-06-26T11:59:21.783Z,5.72
2019-06-26T12:01:54.191Z,6.92
2019-06-26T12:04:26.738Z,6.87
2019-06-26T12:06:59.190Z,7.62
2019-06-26T12:09:34.705Z,6.95
2019-06-26T12:12:07.540Z,6.65
2019-06-26T12:14:40.275Z,7.33
2019-06-26T12:17:12.752Z,6.47
2019-06-26T12:19:45.306Z,6.00
2019-06-26T12:22:18.254Z,5.28
2019-06-26T12:24:50.857Z,5.95
2019-06-26T12:27:23.290Z,6.15
2019-06-26T12:29:55.748Z,5.80
2019-06-26T12:32:28.385Z,5.58
2019-06-26T12:35:01.137Z,6.33
2019-06-26T12:37:37.727Z,5.87
2019-06-26T12:40:09.415Z,5.90
2019-06-26T12:42:42.055Z,6.08
2019-06-26T12:45:15.189Z,5.58
2019-06-26T12:47:47.760Z,5.65
2019-06-26T12:50:34.824Z,4.72
2019-06-26T12:52:58.637Z,5.37
2019-06-26T12:55:33.012Z,5.10
2019-06-26T12:58:13.785Z,5.00
2019-06-26T13:00:43.630Z,4.92
2019-06-26T13:03:16.186Z,5.12
2019-06-26T13:05:48.795Z,5.62
2019-06-26T13:08:21.322Z,5.15
2019-06-26T13:10:54.016Z,5.05
2019-06-26T13:13:26.421Z,4.70
2019-06-26T13:16:01.446Z,4.83
2019-06-26T13:18:33.863Z,5.58
2019-06-26T13:21:06.490Z,5.45
2019-06-26T13:23:39.039Z,5.47
2019-06-26T13:26:11.868Z,5.72
2019-06-26T13:28:44.353Z,5.97
2019-06-26T13:31:16.904Z,5.83
2019-06-26T13:33:49.487Z,20.50
2019-06-26T13:36:22.070Z,6.15
2019-06-26T13:38:54.664Z,14.30
2019-06-26T13:41:27.106Z,7.30
2019-06-26T13:44:00.158Z,5.78
2019-06-26T13:46:32.659Z,5.85
2019-06-26T13:49:05.279Z,5.60
2019-06-26T13:51:37.773Z,6.25
2019-06-26T13:54:10.775Z,6.17
2019-06-26T13:56:44.359Z,6.08
2019-06-26T13:59:17.027Z,5.80
2019-06-26T14:01:49.584Z,5.87
2019-06-26T14:04:22.802Z,5.40
2019-06-26T14:06:55.328Z,25.52
2019-06-26T14:09:27.813Z,6.85
2019-06-26T14:12:00.430Z,6.17
2019-06-26T14:14:52.560Z,6.20
2019-06-26T14:17:07.364Z,6.15
2019-06-26T14:19:40.283Z,6.37
2019-06-26T14:22:13.201Z,6.60
2019-06-26T14:24:45.923Z,6.30
2019-06-26T14:27:18.555Z,5.50
2019-06-26T14:29:51.108Z,5.90
2019-06-26T14:32:23.465Z,5.42
2019-06-26T14:34:57.394Z,6.25
2019-06-26T14:37:29.745Z,5.58
2019-06-26T14:40:02.446Z,5.35
2019-06-26T14:42:34.876Z,6.20
2019-06-26T14:45:10.243Z,6.72
2019-06-26T14:47:42.407Z,6.95
2019-06-26T14:50:16.115Z,6.30
2019-06-26T14:52:48.115Z,7.53
2019-06-26T14:55:22.117Z,6.58
2019-06-26T14:57:54.260Z,5.95
2019-06-26T15:00:26.226Z,5.53
2019-06-26T15:02:58.398Z,7.10
2019-06-26T15:05:30.635Z,6.62
2019-06-26T15:08:02.851Z,5.78
2019-06-26T15:10:35.505Z,5.80
2019-06-26T15:13:08.093Z,5.65
2019-06-26T15:15:40.651Z,5.83
2019-06-26T15:18:13.162Z,5.95
2019-06-26T15:20:45.487Z,5.50
2019-06-26T15:23:17.469Z,6.53
2019-06-26T15:25:49.659Z,6.00
2019-06-26T15:28:23.535Z,5.78
2019-06-26T15:30:58.562Z,5.87
2019-06-26T15:33:39.562Z,5.40
2019-06-26T15:36:12.350Z,5.80
2019-06-26T15:38:44.632Z,6.35
2019-06-26T15:41:17.017Z,5.80
2019-06-26T15:43:50.064Z,6.30
2019-06-26T15:46:22.661Z,5.80
2019-06-26T15:49:06.417Z,6.15
2019-06-26T15:51:38.791Z,6.50
2019-06-26T15:54:11.534Z,6.40
2019-06-26T15:56:44.105Z,6.25
2019-06-26T15:59:16.395Z,6.67
2019-06-26T16:01:49.724Z,7.20
2019-06-26T16:04:22.055Z,6.12
2019-06-26T16:06:54.399Z,5.78
2019-06-26T16:09:26.823Z,6.37
2019-06-26T16:11:59.291Z,6.10
2019-06-26T16:14:34.200Z,6.03
2019-06-26T16:17:12.246Z,6.10
2019-06-26T16:19:45.449Z,6.45
2019-06-26T16:22:31.224Z,6.37
2019-06-26T16:24:51.955Z,6.53
2019-06-26T16:27:24.322Z,6.53
2019-06-26T16:29:56.710Z,5.83
2019-06-26T16:32:29.061Z,7.30
2019-06-26T16:35:01.400Z,26.12
2019-06-26T16:37:34.517Z,17.98
2019-06-26T16:40:07.614Z,6.47
2019-06-26T16:42:39.934Z,8.30
2019-06-26T16:45:12.295Z,7.45
2019-06-26T16:47:47.415Z,6.75
2019-06-26T16:50:20.574Z,6.05
2019-06-26T16:52:52.784Z,6.47
2019-06-26T16:55:25.097Z,7.17
2019-06-26T16:57:57.370Z,6.22
2019-06-26T17:00:29.918Z,10.32
2019-06-26T17:03:02.675Z,8.78
2019-06-26T17:05:35.192Z,9.80
2019-06-26T17:08:07.776Z,8.85
2019-06-26T17:10:40.219Z,7.50
2019-06-26T17:13:12.254Z,8.73
2019-06-26T17:15:55.683Z,9.50
2019-06-26T17:18:28.106Z,7.12
2019-06-26T17:21:00.590Z,7.78
2019-06-26T17:23:35.945Z,7.30
2019-06-26T17:26:08.597Z,6.20
2019-06-26T17:28:41.067Z,7.08
2019-06-26T17:31:13.169Z,7.15
2019-06-26T17:33:45.745Z,7.28
2019-06-26T17:36:36.743Z,23.42
2019-06-26T17:39:09.703Z,16.48
2019-06-26T17:41:44.043Z,10.70
2019-06-26T17:44:17.449Z,10.45
2019-06-26T17:47:05.160Z,6.33
2019-06-26T17:49:35.634Z,6.08
2019-06-26T17:52:10.576Z,7.10
2019-06-26T17:54:43.167Z,7.35
2019-06-26T17:57:15.234Z,10.35
2019-06-26T17:59:47.523Z,6.83
2019-06-26T18:02:20.087Z,9.70
2019-06-26T18:04:52.491Z,8.05
2019-06-26T18:07:24.950Z,8.38
2019-06-26T18:09:57.210Z,11.38
2019-06-26T18:12:29.694Z,8.13
2019-06-26T18:15:02.141Z,6.67
2019-06-26T18:17:34.821Z,7.75
2019-06-26T18:20:07.618Z,13.78
2019-06-26T18:22:40.158Z,10.10
2019-06-26T18:25:16.481Z,6.70
2019-06-26T18:27:47.297Z,7.08
2019-06-26T18:30:22.580Z,6.92
2019-06-26T18:32:54.023Z,6.97
2019-06-26T18:35:26.293Z,6.67
2019-06-26T18:37:59.425Z,7.83
2019-06-26T18:40:32.048Z,7.42
2019-06-26T18:43:04.845Z,10.08
2019-06-26T18:45:37.234Z,7.47
2019-06-26T18:48:09.690Z,7.80
2019-06-26T18:50:42.047Z,7.15
2019-06-26T18:53:14.342Z,7.37
2019-06-26T18:55:46.676Z,7.25
2019-06-26T18:58:18.680Z,7.00
2019-06-26T19:00:50.726Z,7.05
2019-06-26T19:03:23.258Z,6.55
2019-06-26T19:05:55.716Z,6.62
2019-06-26T19:08:30.097Z,6.62
2019-06-26T19:11:02.638Z,7.08
2019-06-26T19:13:35.142Z,7.17
2019-06-26T19:16:07.545Z,7.53
2019-06-26T19:18:39.816Z,6.83
2019-06-26T19:21:12.565Z,6.85
2019-06-26T19:23:44.959Z,6.92
2019-06-26T19:26:18.252Z,7.55
2019-06-26T19:28:50.934Z,7.05
2019-06-26T19:31:23.097Z,7.62
2019-06-26T19:33:55.203Z,9.13
2019-06-26T19:36:28.663Z,8.70
2019-06-26T19:39:01.191Z,8.08
2019-06-26T19:41:33.606Z,8.03
2019-06-26T19:44:08.799Z,7.55
2019-06-26T19:46:42.020Z,7.25
2019-06-26T19:49:13.647Z,6.95
2019-06-26T19:51:47.731Z,10.30
2019-06-26T19:54:26.929Z,8.65
2019-06-26T19:56:55.351Z,7.67
2019-06-26T19:59:28.070Z,7.62
2019-06-26T20:02:00.272Z,7.78
2019-06-26T20:04:32.624Z,8.00
2019-06-26T20:07:05.098Z,7.72
2019-06-26T20:09:37.618Z,7.00
2019-06-26T20:12:09.767Z,7.90
2019-06-26T20:14:42.082Z,7.53
2019-06-26T20:17:14.449Z,8.08
2019-06-26T20:19:46.651Z,7.42
2019-06-26T20:22:22.276Z,7.37
2019-06-26T20:24:57.318Z,8.78
2019-06-26T20:27:29.175Z,7.62
2019-06-26T20:30:01.713Z,7.30
2019-06-26T20:32:34.144Z,9.25
2019-06-26T20:35:06.614Z,9.93
2019-06-26T20:37:39.021Z,8.98
2019-06-26T20:40:12.921Z,8.15
2019-06-26T20:42:45.517Z,7.60
2019-06-26T20:45:17.909Z,8.33
2019-06-26T20:47:50.084Z,7.58
2019-06-26T20:50:22.232Z,8.10
2019-06-26T20:52:54.454Z,9.08
2019-06-26T20:55:26.724Z,7.72
2019-06-26T20:57:58.975Z,7.45
2019-06-26T21:00:31.154Z,7.67
2019-06-26T21:03:03.719Z,7.78
2019-06-26T21:05:35.857Z,8.68
2019-06-26T21:08:08.593Z,9.63
2019-06-26T21:10:41.402Z,9.48
2019-06-26T21:13:13.637Z,9.65
2019-06-26T21:15:45.984Z,9.10
2019-06-26T21:18:18.176Z,8.95
2019-06-26T21:20:50.237Z,8.05
2019-06-26T21:23:23.574Z,9.15
2019-06-26T21:25:56.199Z,10.13
2019-06-26T21:28:28.452Z,10.48
2019-06-26T21:31:00.643Z,9.43
2019-06-26T21:33:32.831Z,9.20
2019-06-26T21:36:05.181Z,9.70
2019-06-26T21:38:37.229Z,8.90
2019-06-26T21:41:11.246Z,8.78
2019-06-26T21:43:43.244Z,9.15
2019-06-26T21:46:17.039Z,9.05
2019-06-26T21:48:49.083Z,8.80
2019-06-26T21:51:20.948Z,8.70
2019-06-26T21:53:53.352Z,8.58
2019-06-26T21:56:25.576Z,8.50
2019-06-26T21:58:57.770Z,8.33
2019-06-26T22:01:30.237Z,8.60
2019-06-26T22:04:03.721Z,8.88
2019-06-26T22:06:36.077Z,8.83
2019-06-26T22:09:09.876Z,9.33
2019-06-26T22:11:42.348Z,8.50
2019-06-26T22:14:14.617Z,8.70
2019-06-26T22:16:46.821Z,9.30
2019-06-26T22:19:19.298Z,9.48
2019-06-26T22:21:51.575Z,9.38
2019-06-26T22:24:23.552Z,9.50
2019-06-26T22:26:56.103Z,9.73
2019-06-26T22:29:28.500Z,9.58
2019-06-26T22:32:00.844Z,9.80
2019-06-26T22:34:34.280Z,9.85
2019-06-26T22:37:06.759Z,9.70
2019-06-26T22:39:39.377Z,9.55
2019-06-26T22:42:11.459Z,10.08
2019-06-26T22:44:43.777Z,10.20
2019-06-26T22:47:16.080Z,10.32
2019-06-26T22:49:48.277Z,9.95
2019-06-26T22:52:20.058Z,9.95
2019-06-26T22:54:51.970Z,9.30
2019-06-26T22:57:24.041Z,10.85
2019-06-26T22:59:56.009Z,10.13
2019-06-26T23:02:27.998Z,10.18
2019-06-26T23:05:00.515Z,9.88
2019-06-26T23:07:32.716Z,10.68
2019-06-26T23:10:05.059Z,10.15
2019-06-26T23:12:37.159Z,9.63
2019-06-26T23:15:09.966Z,10.28
2019-06-26T23:17:42.008Z,10.43
2019-06-26T23:20:14.361Z,10.53
2019-06-26T23:22:46.438Z,10.35
2019-06-26T23:25:19.197Z,10.38
2019-06-26T23:27:51.625Z,10.43
2019-06-26T23:30:25.210Z,46.20
2019-06-26T23:32:57.720Z,58.70
2019-06-26T23:35:29.980Z,16.30
2019-06-26T23:38:03.824Z,10.95
2019-06-26T23:40:35.753Z,10.88
2019-06-26T23:43:08.390Z,9.63
2019-06-26T23:45:40.690Z,11.53
2019-06-26T23:48:12.907Z,11.18
2019-06-26T23:50:44.969Z,10.70
2019-06-26T23:53:17.280Z,10.80
2019-06-26T23:55:49.416Z,10.75
2019-06-26T23:58:22.207Z,10.80
